地図

経路データ

SID SEASON NUMBER BASIN SUBBASIN NAME ISO_TIME NATURE LAT LON WMO_WIND WMO_PRES WMO_AGENCY TRACK_TYPE DIST2LAND LANDFALL IFLAG USA_AGENCY USA_ATCF_ID USA_LAT USA_LON USA_RECORD USA_STATUS USA_WIND USA_PRES USA_SSHS USA_R34_NE USA_R34_SE USA_R34_SW USA_R34_NW USA_R50_NE USA_R50_SE USA_R50_SW USA_R50_NW USA_R64_NE USA_R64_SE USA_R64_SW USA_R64_NW USA_POCI USA_ROCI USA_RMW USA_EYE TOKYO_LAT TOKYO_LON TOKYO_GRADE TOKYO_WIND TOKYO_PRES TOKYO_R50_DIR TOKYO_R50_LONG TOKYO_R50_SHORT TOKYO_R30_DIR TOKYO_R30_LONG TOKYO_R30_SHORT TOKYO_LAND CMA_LAT CMA_LON CMA_CAT CMA_WIND CMA_PRES HKO_LAT HKO_LON HKO_CAT HKO_WIND HKO_PRES NEWDELHI_LAT NEWDELHI_LON NEWDELHI_GRADE NEWDELHI_WIND NEWDELHI_PRES NEWDELHI_CI NEWDELHI_DP NEWDELHI_POCI REUNION_LAT REUNION_LON REUNION_TYPE REUNION_WIND REUNION_PRES REUNION_TNUM REUNION_CI REUNION_RMW REUNION_R34_NE REUNION_R34_SE REUNION_R34_SW REUNION_R34_NW REUNION_R50_NE REUNION_R50_SE REUNION_R50_SW REUNION_R50_NW REUNION_R64_NE REUNION_R64_SE REUNION_R64_SW REUNION_R64_NW BOM_LAT BOM_LON BOM_TYPE BOM_WIND BOM_PRES BOM_TNUM BOM_CI BOM_RMW BOM_R34_NE BOM_R34_SE BOM_R34_SW BOM_R34_NW BOM_R50_NE BOM_R50_SE BOM_R50_SW BOM_R50_NW BOM_R64_NE BOM_R64_SE BOM_R64_SW BOM_R64_NW BOM_ROCI BOM_POCI BOM_EYE BOM_POS_METHOD BOM_PRES_METHOD NADI_LAT NADI_LON NADI_CAT NADI_WIND NADI_PRES WELLINGTON_LAT WELLINGTON_LON WELLINGTON_WIND WELLINGTON_PRES DS824_LAT DS824_LON DS824_STAGE DS824_WIND DS824_PRES TD9636_LAT TD9636_LON TD9636_STAGE TD9636_WIND TD9636_PRES TD9635_LAT TD9635_LON TD9635_WIND TD9635_PRES TD9635_ROCI NEUMANN_LAT NEUMANN_LON NEUMANN_CLASS NEUMANN_WIND NEUMANN_PRES MLC_LAT MLC_LON MLC_CLASS MLC_WIND MLC_PRES USA_GUST BOM_GUST BOM_GUST_PER REUNION_GUST REUNION_GUST_PER USA_SEAHGT USA_SEARAD_NE USA_SEARAD_SE USA_SEARAD_SW USA_SEARAD_NW STORM_SPEED STORM_DIR
1902287N14064 1902 43 NI AS NOT_NAMED 1902-10-14 00:00:00 TS 13.9000 64.4000 main 906 882 _________O____ -1 13.9000 64.4000 TC 64 4 303
1902287N14064 1902 43 NI AS NOT_NAMED 1902-10-14 03:00:00 TS 14.0050 64.2334 main 882 858 _________PO___ -1 14.0576 64.1501 TC 64 13.9000 64.4000 4 5 301
1902287N14064 1902 43 NI AS NOT_NAMED 1902-10-14 06:00:00 TS 14.1344 64.0038 main 858 835 _________OP___ -1 14.2000 63.9000 TC 64 14.0360 64.1596 4 5 298
1902287N14064 1902 43 NI AS NOT_NAMED 1902-10-14 09:00:00 TS 14.2518 63.7636 main 827 803 _________PP___ -1 14.3150 63.6500 TC 64 14.1676 63.9152 4 5 295
1902287N14064 1902 43 NI AS NOT_NAMED 1902-10-14 12:00:00 TS 14.3452 63.5316 main 803 779 _________OP___ -1 14.4000 63.4000 TC 64 14.2903 63.6632 4 5 290
1902287N14064 1902 43 NI AS NOT_NAMED 1902-10-14 15:00:00 TS 14.4250 63.2750 main 779 748 _________PO___ -1 14.4500 63.1499 TC 64 14.4000 63.4000 4 5 287
1902287N14064 1902 43 NI AS NOT_NAMED 1902-10-14 18:00:00 TS 14.4968 63.0128 main 748 725 _________OP___ -1 14.5000 62.9000 TC 64 14.4935 63.1256 4 5 287
1902287N14064 1902 43 NI AS NOT_NAMED 1902-10-14 21:00:00 TS 14.5863 62.7413 main 717 694 _________PP___ -1 14.6000 62.6276 TC 64 14.5726 62.8550 4 5 289
1902287N14064 1902 43 NI AS NOT_NAMED 1902-10-15 00:00:00 TS 14.6702 62.5034 main 694 678 _________OP___ -1 14.7000 62.4000 TC 64 14.6404 62.6069 4 4 290
1902287N14064 1902 43 NI AS NOT_NAMED 1902-10-15 03:00:00 TS 14.7287 62.3387 main 678 663 _________PO___ -1 14.7575 62.2775 TC 64 14.7000 62.4000 4 3 292
1902287N14064 1902 43 NI AS NOT_NAMED 1902-10-15 06:00:00 TS 14.7805 62.2264 main 663 655 _________OP___ -1 14.8000 62.2000 TC 64 14.7611 62.2527 4 2 296
1902287N14064 1902 43 NI AS NOT_NAMED 1902-10-15 09:00:00 TS 14.8324 62.1200 main 655 640 _________PP___ -1 14.8500 62.0925 TC 64 14.8148 62.1474 4 2 299
1902287N14064 1902 43 NI AS NOT_NAMED 1902-10-15 12:00:00 TS 14.8806 62.0342 main 640 640 _________OP___ -1 14.9000 62.0000 TC 64 14.8611 62.0684 4 2 304
1902287N14064 1902 43 NI AS NOT_NAMED 1902-10-15 15:00:00 TS 14.9287 61.9750 main 640 624 _________PO___ -1 14.9575 61.9500 TC 64 14.9000 62.0000 4 1 306
1902287N14064 1902 43 NI AS NOT_NAMED 1902-10-15 18:00:00 TS 14.9579 61.9251 main 624 624 _________OP___ -1 15.0000 61.9000 TC 64 14.9158 61.9502 4 1 286
1902287N14064 1902 43 NI AS NOT_NAMED 1902-10-15 21:00:00 TS 14.9598 61.8698 main 624 617 _________PP___ -1 14.9924 61.8374 TC 64 14.9272 61.9022 4 2 276
1902287N14064 1902 43 NI AS NOT_NAMED 1902-10-16 00:00:00 TS 14.9750 61.7641 main 617 603 _________OP___ -1 15.0000 61.7000 TC 64 14.9501 61.8282 4 3 285
1902287N14064 1902 43 NI AS NOT_NAMED 1902-10-16 03:00:00 TS 15.0388 61.5613 main 603 573 _________PO___ -1 15.0776 61.4225 TC 64 15.0000 61.7000 4 5 291
1902287N14064 1902 43 NI AS NOT_NAMED 1902-10-16 06:00:00 TS 15.1502 61.2934 main 564 535 _________OP___ -1 15.2000 61.1000 TC 64 15.1004 61.4867 4 6 296
1902287N14064 1902 43 NI AS NOT_NAMED 1902-10-16 09:00:00 TS 15.2888 61.0339 main 535 513 _________PP___ -1 15.3499 60.8500 TC 64 15.2276 61.2177 4 6 299
1902287N14064 1902 43 NI AS NOT_NAMED 1902-10-16 12:00:00 TS 15.4330 60.7574 main 513 485 _________OP___ -1 15.5000 60.6000 TC 64 15.3660 60.9148 4 6 295
1902287N14064 1902 43 NI AS NOT_NAMED 1902-10-16 15:00:00 TS 15.5537 60.4537 main 476 457 _________PO___ -1 15.6075 60.3075 TC 55 15.5000 60.6000 4 6 291
1902287N14064 1902 43 NI AS NOT_NAMED 1902-10-16 18:00:00 TS 15.6529 60.1664 main 448 431 _________OP___ -1 15.7000 60.0000 TC 47 15.6175 60.2912 4 6 289
1902287N14064 1902 43 NI AS NOT_NAMED 1902-10-16 21:00:00 TS 15.7511 59.8730 main 421 405 _________PP___ -1 15.7976 59.6976 TC 38 15.7202 59.9900 4 6 289
1902287N14064 1902 43 NI AS NOT_NAMED 1902-10-17 00:00:00 TS 15.8418 59.5959 main 405 386 _________OP___ -1 15.9000 59.4000 TC 30 15.8127 59.6938 4 5 288
1902287N14064 1902 43 NI AS NOT_NAMED 1902-10-17 03:00:00 NR 15.9000 59.4000 main 386 __________O___ -1 TC 15.9000 59.4000 1 4 287

IBTrACS Databaseについて

本データベースは、米国NOAAが公開する1842年以降の世界の熱帯低気圧のベストトラックデータアーカイブInternational Best Track Archive for Climate Stewardship (IBTrACS)を、ウェブで閲覧しやすい形式に変換したものです。

最終更新日:2021-12-01